sensor_id;sensor_type;location;lat;lon;timestamp;P1;durP1;ratioP1;P2;durP2;ratioP2
6342;SDS011;3204;42.698;23.298;2022-12-07T07:43:02;63.07;;;29.23;;
6342;SDS011;3204;42.698;23.298;2022-12-07T07:45:28;60.43;;;28.57;;
6342;SDS011;3204;42.698;23.298;2022-12-07T07:47:53;58.27;;;30.90;;
6342;SDS011;3204;42.698;23.298;2022-12-07T07:50:19;52.80;;;29.93;;
6342;SDS011;3204;42.698;23.298;2022-12-07T07:52:46;51.17;;;26.87;;
6342;SDS011;3204;42.698;23.298;2022-12-07T07:55:11;52.30;;;26.87;;
6342;SDS011;3204;42.698;23.298;2022-12-07T07:57:38;58.80;;;28.40;;
6342;SDS011;3204;42.698;23.298;2022-12-07T08:00:04;47.67;;;28.13;;
6342;SDS011;3204;42.698;23.298;2022-12-07T08:02:35;46.87;;;26.27;;
6342;SDS011;3204;42.698;23.298;2022-12-07T08:05:01;48.63;;;26.60;;
6342;SDS011;3204;42.698;23.298;2022-12-07T08:07:27;47.13;;;25.80;;
6342;SDS011;3204;42.698;23.298;2022-12-07T08:09:53;45.30;;;27.43;;
6342;SDS011;3204;42.698;23.298;2022-12-07T08:12:18;53.93;;;29.03;;
6342;SDS011;3204;42.698;23.298;2022-12-07T08:14:44;62.40;;;31.57;;
6342;SDS011;3204;42.698;23.298;2022-12-07T08:17:10;57.30;;;30.70;;
6342;SDS011;3204;42.698;23.298;2022-12-07T08:19:35;51.07;;;29.93;;
6342;SDS011;3204;42.698;23.298;2022-12-07T08:22:00;56.03;;;31.50;;
6342;SDS011;3204;42.698;23.298;2022-12-07T08:24:26;55.40;;;30.00;;
6342;SDS011;3204;42.698;23.298;2022-12-07T08:26:52;58.83;;;31.00;;
6342;SDS011;3204;42.698;23.298;2022-12-07T08:29:18;55.40;;;29.50;;
6342;SDS011;3204;42.698;23.298;2022-12-07T08:31:43;55.37;;;29.80;;
6342;SDS011;3204;42.698;23.298;2022-12-07T08:34:12;54.83;;;29.97;;
6342;SDS011;3204;42.698;23.298;2022-12-07T08:36:38;59.30;;;29.77;;
6342;SDS011;3204;42.698;23.298;2022-12-07T08:39:04;63.47;;;31.20;;
6342;SDS011;3204;42.698;23.298;2022-12-07T08:41:30;53.60;;;31.03;;
6342;SDS011;3204;42.698;23.298;2022-12-07T08:43:55;63.07;;;32.33;;
6342;SDS011;3204;42.698;23.298;2022-12-07T08:49:49;58.60;;;31.50;;
6342;SDS011;3204;42.698;23.298;2022-12-07T08:51:48;64.20;;;33.23;;
6342;SDS011;3204;42.698;23.298;2022-12-07T08:54:15;62.40;;;33.10;;
6342;SDS011;3204;42.698;23.298;2022-12-07T08:56:42;63.40;;;32.53;;
6342;SDS011;3204;42.698;23.298;2022-12-07T08:59:08;59.03;;;31.53;;
6342;SDS011;3204;42.698;23.298;2022-12-07T09:01:34;60.00;;;32.07;;
6342;SDS011;3204;42.698;23.298;2022-12-07T09:03:59;64.73;;;32.83;;
6342;SDS011;3204;42.698;23.298;2022-12-07T09:06:25;73.83;;;33.57;;
6342;SDS011;3204;42.698;23.298;2022-12-07T09:08:51;67.40;;;35.10;;
6342;SDS011;3204;42.698;23.298;2022-12-07T09:11:20;69.17;;;34.47;;
6342;SDS011;3204;42.698;23.298;2022-12-07T09:13:46;76.07;;;35.70;;
6342;SDS011;3204;42.698;23.298;2022-12-07T09:16:12;65.63;;;35.30;;
6342;SDS011;3204;42.698;23.298;2022-12-07T09:18:37;73.30;;;36.87;;
6342;SDS011;3204;42.698;23.298;2022-12-07T09:21:03;69.83;;;36.63;;
6342;SDS011;3204;42.698;23.298;2022-12-07T09:23:29;67.73;;;37.57;;
6342;SDS011;3204;42.698;23.298;2022-12-07T09:25:54;72.00;;;36.00;;
6342;SDS011;3204;42.698;23.298;2022-12-07T09:28:20;71.00;;;36.33;;
6342;SDS011;3204;42.698;23.298;2022-12-07T09:30:48;72.70;;;35.03;;
6342;SDS011;3204;42.698;23.298;2022-12-07T09:33:14;67.10;;;37.83;;
6342;SDS011;3204;42.698;23.298;2022-12-07T09:35:46;71.70;;;36.60;;
6342;SDS011;3204;42.698;23.298;2022-12-07T09:38:13;69.30;;;36.73;;
6342;SDS011;3204;42.698;23.298;2022-12-07T09:40:39;64.70;;;34.73;;
6342;SDS011;3204;42.698;23.298;2022-12-07T09:43:05;72.77;;;35.33;;
6342;SDS011;3204;42.698;23.298;2022-12-07T09:45:42;65.80;;;32.53;;
6342;SDS011;3204;42.698;23.298;2022-12-07T09:48:19;62.73;;;32.70;;
6342;SDS011;3204;42.698;23.298;2022-12-07T09:50:47;48.03;;;27.33;;
6342;SDS011;3204;42.698;23.298;2022-12-07T09:53:17;46.17;;;27.97;;
6342;SDS011;3204;42.698;23.298;2022-12-07T09:55:47;46.83;;;25.37;;
6342;SDS011;3204;42.698;23.298;2022-12-07T09:58:17;46.77;;;25.07;;
6342;SDS011;3204;42.698;23.298;2022-12-07T10:00:46;40.67;;;24.73;;
6342;SDS011;3204;42.698;23.298;2022-12-07T10:03:12;45.57;;;24.60;;
6342;SDS011;3204;42.698;23.298;2022-12-07T10:05:39;43.13;;;24.73;;
6342;SDS011;3204;42.698;23.298;2022-12-07T10:08:08;51.27;;;26.13;;
6342;SDS011;3204;42.698;23.298;2022-12-07T10:10:36;47.33;;;25.30;;
6342;SDS011;3204;42.698;23.298;2022-12-07T10:13:13;51.93;;;24.77;;
6342;SDS011;3204;42.698;23.298;2022-12-07T10:18:35;45.43;;;24.93;;
6342;SDS011;3204;42.698;23.298;2022-12-07T10:23:42;56.70;;;28.70;;
6342;SDS011;3204;42.698;23.298;2022-12-07T10:26:35;48.63;;;26.97;;
6342;SDS011;3204;42.698;23.298;2022-12-07T10:32:04;42.77;;;24.37;;
6342;SDS011;3204;42.698;23.298;2022-12-07T10:34:50;46.40;;;24.73;;
6342;SDS011;3204;42.698;23.298;2022-12-07T10:37:39;40.80;;;23.77;;
6342;SDS011;3204;42.698;23.298;2022-12-07T10:40:10;47.23;;;25.93;;
6342;SDS011;3204;42.698;23.298;2022-12-07T10:43:36;47.27;;;25.23;;
6342;SDS011;3204;42.698;23.298;2022-12-07T10:45:41;50.00;;;25.90;;
6342;SDS011;3204;42.698;23.298;2022-12-07T10:51:06;44.77;;;25.97;;
6342;SDS011;3204;42.698;23.298;2022-12-07T10:53:47;43.63;;;25.77;;
6342;SDS011;3204;42.698;23.298;2022-12-07T10:56:40;53.20;;;27.70;;
6342;SDS011;3204;42.698;23.298;2022-12-07T10:59:28;48.23;;;25.83;;
6342;SDS011;3204;42.698;23.298;2022-12-07T11:02:18;57.33;;;27.60;;
6342;SDS011;3204;42.698;23.298;2022-12-07T11:10:44;49.50;;;28.43;;
6342;SDS011;3204;42.698;23.298;2022-12-07T11:13:29;51.87;;;27.67;;
6342;SDS011;3204;42.698;23.298;2022-12-07T11:16:30;50.67;;;27.83;;
6342;SDS011;3204;42.698;23.298;2022-12-07T11:19:28;43.23;;;25.80;;
6342;SDS011;3204;42.698;23.298;2022-12-07T11:21:58;44.27;;;26.23;;
6342;SDS011;3204;42.698;23.298;2022-12-07T11:27:24;54.93;;;28.00;;
6342;SDS011;3204;42.698;23.298;2022-12-07T11:29:55;59.60;;;30.30;;
6342;SDS011;3204;42.698;23.298;2022-12-07T11:35:21;41.40;;;21.27;;
6342;SDS011;3204;42.698;23.298;2022-12-07T11:38:08;30.57;;;19.67;;
6342;SDS011;3204;42.698;23.298;2022-12-07T11:40:38;24.75;;;16.77;;
6342;SDS011;3204;42.698;23.298;2022-12-07T11:45:54;33.70;;;19.83;;
6342;SDS011;3204;42.698;23.298;2022-12-07T11:51:02;29.33;;;17.77;;
6342;SDS011;3204;42.698;23.298;2022-12-07T11:53:33;30.03;;;18.30;;
6342;SDS011;3204;42.698;23.298;2022-12-07T11:56:09;33.70;;;18.67;;
6342;SDS011;3204;42.698;23.298;2022-12-07T12:09:05;38.92;;;21.60;;
6342;SDS011;3204;42.698;23.298;2022-12-07T12:14:55;33.88;;;21.58;;
6342;SDS011;3204;42.698;23.298;2022-12-07T12:25:21;30.30;;;19.40;;
6342;SDS011;3204;42.698;23.298;2022-12-07T12:27:50;32.50;;;18.67;;
6342;SDS011;3204;42.698;23.298;2022-12-07T12:30:26;31.70;;;19.52;;
6342;SDS011;3204;42.698;23.298;2022-12-07T12:32:54;31.40;;;19.35;;
6342;SDS011;3204;42.698;23.298;2022-12-07T12:35:37;32.05;;;19.10;;
6342;SDS011;3204;42.698;23.298;2022-12-07T12:40:52;34.30;;;19.63;;
6342;SDS011;3204;42.698;23.298;2022-12-07T12:46:35;32.78;;;18.58;;
6342;SDS011;3204;42.698;23.298;2022-12-07T12:51:45;25.33;;;15.63;;
6342;SDS011;3204;42.698;23.298;2022-12-07T12:54:27;22.40;;;15.32;;
6342;SDS011;3204;42.698;23.298;2022-12-07T12:59:36;32.70;;;18.37;;
6342;SDS011;3204;42.698;23.298;2022-12-07T13:13:25;29.95;;;17.08;;
6342;SDS011;3204;42.698;23.298;2022-12-07T13:18:35;27.17;;;16.58;;
6342;SDS011;3204;42.698;23.298;2022-12-07T13:28:41;26.40;;;15.98;;
6342;SDS011;3204;42.698;23.298;2022-12-07T13:33:38;28.00;;;16.15;;
6342;SDS011;3204;42.698;23.298;2022-12-07T13:36:03;26.02;;;14.98;;
6342;SDS011;3204;42.698;23.298;2022-12-07T13:38:48;23.40;;;15.35;;
6342;SDS011;3204;42.698;23.298;2022-12-07T13:41:18;24.20;;;15.65;;
6342;SDS011;3204;42.698;23.298;2022-12-07T13:49:19;21.85;;;15.20;;
6342;SDS011;3204;42.698;23.298;2022-12-07T13:51:49;24.55;;;16.95;;
6342;SDS011;3204;42.698;23.298;2022-12-07T13:54:16;24.25;;;16.38;;
6342;SDS011;3204;42.698;23.298;2022-12-07T13:56:42;28.73;;;17.05;;
6342;SDS011;3204;42.698;23.298;2022-12-07T13:59:16;28.77;;;16.83;;
6342;SDS011;3204;42.698;23.298;2022-12-07T14:01:45;26.65;;;17.00;;
6342;SDS011;3204;42.698;23.298;2022-12-07T14:04:29;25.30;;;17.73;;
6342;SDS011;3204;42.698;23.298;2022-12-07T14:06:57;28.23;;;17.40;;
6342;SDS011;3204;42.698;23.298;2022-12-07T14:09:24;29.83;;;17.13;;
6342;SDS011;3204;42.698;23.298;2022-12-07T14:11:52;30.80;;;18.30;;
6342;SDS011;3204;42.698;23.298;2022-12-07T14:14:29;28.65;;;18.00;;
6342;SDS011;3204;42.698;23.298;2022-12-07T14:17:15;31.00;;;20.15;;
6342;SDS011;3204;42.698;23.298;2022-12-07T14:22:15;26.35;;;17.05;;
6342;SDS011;3204;42.698;23.298;2022-12-07T14:25:22;30.98;;;17.88;;
6342;SDS011;3204;42.698;23.298;2022-12-07T14:27:57;35.50;;;17.73;;
6342;SDS011;3204;42.698;23.298;2022-12-07T14:30:25;69.65;;;28.98;;
6342;SDS011;3204;42.698;23.298;2022-12-07T14:32:54;33.63;;;17.85;;
6342;SDS011;3204;42.698;23.298;2022-12-07T14:35:30;42.85;;;19.70;;
6342;SDS011;3204;42.698;23.298;2022-12-07T14:37:56;43.15;;;21.75;;
6342;SDS011;3204;42.698;23.298;2022-12-07T14:40:26;44.45;;;20.55;;
6342;SDS011;3204;42.698;23.298;2022-12-07T14:43:03;37.55;;;21.25;;
6342;SDS011;3204;42.698;23.298;2022-12-07T14:45:39;94.30;;;32.75;;
6342;SDS011;3204;42.698;23.298;2022-12-07T14:48:05;96.57;;;36.30;;
6342;SDS011;3204;42.698;23.298;2022-12-07T14:50:35;53.90;;;25.10;;
6342;SDS011;3204;42.698;23.298;2022-12-07T14:53:05;49.70;;;22.83;;
6342;SDS011;3204;42.698;23.298;2022-12-07T14:55:42;42.03;;;20.85;;
6342;SDS011;3204;42.698;23.298;2022-12-07T14:58:12;42.42;;;21.08;;
6342;SDS011;3204;42.698;23.298;2022-12-07T15:00:39;57.08;;;24.27;;
6342;SDS011;3204;42.698;23.298;2022-12-07T15:03:04;80.03;;;31.40;;
6342;SDS011;3204;42.698;23.298;2022-12-07T15:05:30;166.45;;;53.70;;
6342;SDS011;3204;42.698;23.298;2022-12-07T15:07:55;122.63;;;45.45;;
6342;SDS011;3204;42.698;23.298;2022-12-07T15:10:25;124.35;;;45.38;;
6342;SDS011;3204;42.698;23.298;2022-12-07T15:12:55;112.53;;;41.85;;
6342;SDS011;3204;42.698;23.298;2022-12-07T15:15:41;95.47;;;38.33;;
6342;SDS011;3204;42.698;23.298;2022-12-07T15:18:06;74.00;;;30.63;;
6342;SDS011;3204;42.698;23.298;2022-12-07T15:20:32;87.72;;;33.58;;
6342;SDS011;3204;42.698;23.298;2022-12-07T15:22:58;111.60;;;46.90;;
6342;SDS011;3204;42.698;23.298;2022-12-07T15:25:23;92.25;;;36.60;;
6342;SDS011;3204;42.698;23.298;2022-12-07T15:27:49;111.80;;;45.13;;
6342;SDS011;3204;42.698;23.298;2022-12-07T15:30:15;117.30;;;44.85;;
6342;SDS011;3204;42.698;23.298;2022-12-07T15:32:40;93.40;;;42.90;;
6342;SDS011;3204;42.698;23.298;2022-12-07T15:35:06;127.00;;;53.72;;
6342;SDS011;3204;42.698;23.298;2022-12-07T15:37:32;158.98;;;68.63;;
6342;SDS011;3204;42.698;23.298;2022-12-07T15:39:58;156.45;;;69.38;;
6342;SDS011;3204;42.698;23.298;2022-12-07T15:42:23;125.97;;;53.83;;
6342;SDS011;3204;42.698;23.298;2022-12-07T15:44:48;161.05;;;58.58;;
6342;SDS011;3204;42.698;23.298;2022-12-07T15:47:42;123.88;;;48.20;;
6342;SDS011;3204;42.698;23.298;2022-12-07T15:50:13;92.32;;;40.25;;
6342;SDS011;3204;42.698;23.298;2022-12-07T15:52:40;81.90;;;38.42;;
6342;SDS011;3204;42.698;23.298;2022-12-07T15:55:06;116.70;;;44.67;;
6342;SDS011;3204;42.698;23.298;2022-12-07T15:57:32;82.67;;;37.87;;
6342;SDS011;3204;42.698;23.298;2022-12-07T15:59:58;85.47;;;38.50;;
6342;SDS011;3204;42.698;23.298;2022-12-07T16:02:24;89.50;;;41.22;;
6342;SDS011;3204;42.698;23.298;2022-12-07T16:04:50;85.60;;;39.20;;
6342;SDS011;3204;42.698;23.298;2022-12-07T16:07:16;88.83;;;40.10;;
6342;SDS011;3204;42.698;23.298;2022-12-07T16:09:43;83.10;;;39.20;;
6342;SDS011;3204;42.698;23.298;2022-12-07T16:12:10;79.47;;;38.60;;
6342;SDS011;3204;42.698;23.298;2022-12-07T16:14:36;93.33;;;43.67;;
6342;SDS011;3204;42.698;23.298;2022-12-07T16:17:03;105.17;;;46.87;;
6342;SDS011;3204;42.698;23.298;2022-12-07T16:19:29;96.60;;;43.20;;
6342;SDS011;3204;42.698;23.298;2022-12-07T16:21:55;86.30;;;42.07;;
6342;SDS011;3204;42.698;23.298;2022-12-07T16:24:21;94.50;;;38.93;;
6342;SDS011;3204;42.698;23.298;2022-12-07T16:26:47;91.73;;;43.67;;
6342;SDS011;3204;42.698;23.298;2022-12-07T16:29:13;120.53;;;53.63;;
6342;SDS011;3204;42.698;23.298;2022-12-07T16:31:39;109.77;;;49.07;;
6342;SDS011;3204;42.698;23.298;2022-12-07T16:34:05;114.90;;;51.97;;
6342;SDS011;3204;42.698;23.298;2022-12-07T16:36:31;120.83;;;50.60;;
6342;SDS011;3204;42.698;23.298;2022-12-07T16:38:58;129.83;;;55.27;;
6342;SDS011;3204;42.698;23.298;2022-12-07T16:41:24;174.60;;;67.97;;
6342;SDS011;3204;42.698;23.298;2022-12-07T16:43:50;191.43;;;73.20;;
6342;SDS011;3204;42.698;23.298;2022-12-07T16:46:16;130.50;;;58.40;;
6342;SDS011;3204;42.698;23.298;2022-12-07T16:48:42;132.13;;;56.47;;
6342;SDS011;3204;42.698;23.298;2022-12-07T16:51:09;126.20;;;56.90;;
6342;SDS011;3204;42.698;23.298;2022-12-07T16:53:37;143.83;;;57.83;;
6342;SDS011;3204;42.698;23.298;2022-12-07T16:56:03;157.77;;;63.40;;
6342;SDS011;3204;42.698;23.298;2022-12-07T16:58:30;158.50;;;72.47;;
6342;SDS011;3204;42.698;23.298;2022-12-07T17:00:56;151.30;;;68.40;;
6342;SDS011;3204;42.698;23.298;2022-12-07T17:03:21;134.20;;;59.47;;
6342;SDS011;3204;42.698;23.298;2022-12-07T17:05:47;131.97;;;56.70;;
6342;SDS011;3204;42.698;23.298;2022-12-07T17:08:13;93.77;;;42.20;;
6342;SDS011;3204;42.698;23.298;2022-12-07T17:10:41;73.13;;;37.57;;
6342;SDS011;3204;42.698;23.298;2022-12-07T17:13:08;88.43;;;40.60;;
6342;SDS011;3204;42.698;23.298;2022-12-07T17:16:02;98.33;;;45.87;;
6342;SDS011;3204;42.698;23.298;2022-12-07T17:18:31;99.20;;;44.57;;
6342;SDS011;3204;42.698;23.298;2022-12-07T17:21:05;84.07;;;42.10;;
6342;SDS011;3204;42.698;23.298;2022-12-07T17:23:32;179.93;;;69.63;;
6342;SDS011;3204;42.698;23.298;2022-12-07T17:26:08;177.13;;;63.93;;
6342;SDS011;3204;42.698;23.298;2022-12-07T17:28:36;209.10;;;78.97;;
6342;SDS011;3204;42.698;23.298;2022-12-07T17:31:04;156.13;;;67.90;;
6342;SDS011;3204;42.698;23.298;2022-12-07T17:33:32;181.03;;;72.97;;
6342;SDS011;3204;42.698;23.298;2022-12-07T17:35:58;156.87;;;65.70;;
6342;SDS011;3204;42.698;23.298;2022-12-07T17:38:23;103.87;;;44.90;;
6342;SDS011;3204;42.698;23.298;2022-12-07T17:40:49;106.43;;;47.57;;
6342;SDS011;3204;42.698;23.298;2022-12-07T17:43:15;91.43;;;45.13;;
6342;SDS011;3204;42.698;23.298;2022-12-07T17:45:40;64.87;;;31.50;;
6342;SDS011;3204;42.698;23.298;2022-12-07T17:48:06;70.47;;;31.33;;
6342;SDS011;3204;42.698;23.298;2022-12-07T17:50:31;61.53;;;30.13;;
6342;SDS011;3204;42.698;23.298;2022-12-07T17:53:16;51.10;;;26.07;;
6342;SDS011;3204;42.698;23.298;2022-12-07T17:55:41;52.77;;;27.77;;
6342;SDS011;3204;42.698;23.298;2022-12-07T17:58:07;51.90;;;27.40;;
6342;SDS011;3204;42.698;23.298;2022-12-07T18:00:32;52.73;;;27.93;;
6342;SDS011;3204;42.698;23.298;2022-12-07T18:03:05;66.30;;;28.33;;
6342;SDS011;3204;42.698;23.298;2022-12-07T18:05:35;57.67;;;31.63;;
6342;SDS011;3204;42.698;23.298;2022-12-07T18:08:02;67.73;;;33.47;;
6342;SDS011;3204;42.698;23.298;2022-12-07T18:10:27;67.33;;;35.33;;
6342;SDS011;3204;42.698;23.298;2022-12-07T18:12:53;74.77;;;35.57;;
6342;SDS011;3204;42.698;23.298;2022-12-07T18:15:38;65.37;;;34.67;;
6342;SDS011;3204;42.698;23.298;2022-12-07T18:18:04;68.30;;;34.80;;
6342;SDS011;3204;42.698;23.298;2022-12-07T18:20:30;72.83;;;35.80;;
6342;SDS011;3204;42.698;23.298;2022-12-07T18:22:55;68.97;;;34.37;;
6342;SDS011;3204;42.698;23.298;2022-12-07T18:25:21;70.83;;;36.40;;
6342;SDS011;3204;42.698;23.298;2022-12-07T18:27:46;71.73;;;37.10;;
6342;SDS011;3204;42.698;23.298;2022-12-07T18:30:12;77.43;;;37.93;;
6342;SDS011;3204;42.698;23.298;2022-12-07T18:32:38;71.03;;;37.33;;
6342;SDS011;3204;42.698;23.298;2022-12-07T18:35:04;75.20;;;36.27;;
6342;SDS011;3204;42.698;23.298;2022-12-07T18:37:29;73.03;;;36.90;;
6342;SDS011;3204;42.698;23.298;2022-12-07T18:39:57;74.87;;;35.67;;
6342;SDS011;3204;42.698;23.298;2022-12-07T18:42:23;64.97;;;34.50;;
6342;SDS011;3204;42.698;23.298;2022-12-07T18:44:49;68.90;;;34.33;;
6342;SDS011;3204;42.698;23.298;2022-12-07T18:47:14;70.43;;;35.40;;
6342;SDS011;3204;42.698;23.298;2022-12-07T18:49:40;66.60;;;34.97;;
6342;SDS011;3204;42.698;23.298;2022-12-07T18:52:05;61.83;;;35.30;;
6342;SDS011;3204;42.698;23.298;2022-12-07T18:54:30;66.77;;;36.57;;
6342;SDS011;3204;42.698;23.298;2022-12-07T18:56:56;151.50;;;52.53;;
6342;SDS011;3204;42.698;23.298;2022-12-07T18:59:21;96.57;;;38.13;;
6342;SDS011;3204;42.698;23.298;2022-12-07T19:02:05;80.87;;;37.90;;
6342;SDS011;3204;42.698;23.298;2022-12-07T19:04:31;73.37;;;33.33;;
6342;SDS011;3204;42.698;23.298;2022-12-07T19:06:57;69.77;;;32.87;;
6342;SDS011;3204;42.698;23.298;2022-12-07T19:09:22;72.20;;;34.70;;
6342;SDS011;3204;42.698;23.298;2022-12-07T19:11:48;74.23;;;34.07;;
6342;SDS011;3204;42.698;23.298;2022-12-07T19:14:14;81.17;;;35.03;;
6342;SDS011;3204;42.698;23.298;2022-12-07T19:16:43;72.93;;;33.93;;
6342;SDS011;3204;42.698;23.298;2022-12-07T19:19:09;80.50;;;35.53;;
6342;SDS011;3204;42.698;23.298;2022-12-07T19:21:34;108.43;;;48.77;;
6342;SDS011;3204;42.698;23.298;2022-12-07T19:24:04;99.53;;;44.80;;
6342;SDS011;3204;42.698;23.298;2022-12-07T19:26:31;82.57;;;42.50;;
6342;SDS011;3204;42.698;23.298;2022-12-07T19:28:56;94.30;;;45.30;;
6342;SDS011;3204;42.698;23.298;2022-12-07T19:31:22;102.03;;;45.73;;
6342;SDS011;3204;42.698;23.298;2022-12-07T19:33:47;91.17;;;45.30;;
6342;SDS011;3204;42.698;23.298;2022-12-07T19:36:13;105.80;;;48.47;;
6342;SDS011;3204;42.698;23.298;2022-12-07T19:38:38;214.43;;;82.87;;
6342;SDS011;3204;42.698;23.298;2022-12-07T19:41:04;125.93;;;52.40;;
6342;SDS011;3204;42.698;23.298;2022-12-07T19:43:32;94.43;;;43.60;;
6342;SDS011;3204;42.698;23.298;2022-12-07T19:46:04;103.77;;;49.00;;
6342;SDS011;3204;42.698;23.298;2022-12-07T19:48:30;101.60;;;45.53;;
6342;SDS011;3204;42.698;23.298;2022-12-07T19:51:05;83.00;;;40.00;;
6342;SDS011;3204;42.698;23.298;2022-12-07T19:53:31;88.93;;;43.23;;
6342;SDS011;3204;42.698;23.298;2022-12-07T19:55:57;95.23;;;45.73;;
6342;SDS011;3204;42.698;23.298;2022-12-07T19:58:22;99.00;;;44.10;;
6342;SDS011;3204;42.698;23.298;2022-12-07T20:00:48;64.60;;;32.10;;
6342;SDS011;3204;42.698;23.298;2022-12-07T20:03:13;66.43;;;33.13;;
6342;SDS011;3204;42.698;23.298;2022-12-07T20:05:39;46.70;;;26.03;;
6342;SDS011;3204;42.698;23.298;2022-12-07T20:08:04;43.10;;;22.83;;
6342;SDS011;3204;42.698;23.298;2022-12-07T20:10:30;34.60;;;20.90;;
6342;SDS011;3204;42.698;23.298;2022-12-07T20:12:58;36.87;;;21.43;;
6342;SDS011;3204;42.698;23.298;2022-12-07T20:15:42;103.43;;;44.73;;
6342;SDS011;3204;42.698;23.298;2022-12-07T20:18:07;45.20;;;24.47;;
6342;SDS011;3204;42.698;23.298;2022-12-07T20:20:33;41.93;;;24.40;;
6342;SDS011;3204;42.698;23.298;2022-12-07T20:22:58;40.27;;;23.53;;
6342;SDS011;3204;42.698;23.298;2022-12-07T20:25:23;37.13;;;22.50;;
6342;SDS011;3204;42.698;23.298;2022-12-07T20:27:49;38.83;;;21.77;;
6342;SDS011;3204;42.698;23.298;2022-12-07T20:30:14;40.43;;;21.27;;
6342;SDS011;3204;42.698;23.298;2022-12-07T20:32:41;35.20;;;21.43;;
6342;SDS011;3204;42.698;23.298;2022-12-07T20:35:07;36.10;;;21.70;;
6342;SDS011;3204;42.698;23.298;2022-12-07T20:37:33;43.30;;;25.53;;
6342;SDS011;3204;42.698;23.298;2022-12-07T20:39:59;42.40;;;23.50;;
6342;SDS011;3204;42.698;23.298;2022-12-07T20:42:25;42.43;;;22.27;;
6342;SDS011;3204;42.698;23.298;2022-12-07T20:45:03;33.63;;;20.20;;
6342;SDS011;3204;42.698;23.298;2022-12-07T20:47:32;35.97;;;20.93;;
6342;SDS011;3204;42.698;23.298;2022-12-07T20:49:59;40.73;;;21.10;;
6342;SDS011;3204;42.698;23.298;2022-12-07T20:52:25;40.23;;;21.27;;
6342;SDS011;3204;42.698;23.298;2022-12-07T20:54:50;37.93;;;20.67;;
6342;SDS011;3204;42.698;23.298;2022-12-07T20:57:16;35.43;;;21.10;;
6342;SDS011;3204;42.698;23.298;2022-12-07T20:59:41;36.03;;;20.90;;
6342;SDS011;3204;42.698;23.298;2022-12-07T21:02:09;41.13;;;23.90;;
6342;SDS011;3204;42.698;23.298;2022-12-07T21:04:36;39.97;;;23.50;;
6342;SDS011;3204;42.698;23.298;2022-12-07T21:07:02;41.97;;;25.50;;
6342;SDS011;3204;42.698;23.298;2022-12-07T21:09:27;51.73;;;26.57;;
6342;SDS011;3204;42.698;23.298;2022-12-07T21:11:53;46.00;;;26.77;;
6342;SDS011;3204;42.698;23.298;2022-12-07T21:14:19;99.97;;;47.17;;
6342;SDS011;3204;42.698;23.298;2022-12-07T21:16:45;101.27;;;48.37;;
6342;SDS011;3204;42.698;23.298;2022-12-07T21:19:10;143.47;;;61.47;;
6342;SDS011;3204;42.698;23.298;2022-12-07T21:21:36;113.67;;;51.13;;
6342;SDS011;3204;42.698;23.298;2022-12-07T21:24:02;157.87;;;63.23;;
6342;SDS011;3204;42.698;23.298;2022-12-07T21:26:29;121.40;;;59.00;;
6342;SDS011;3204;42.698;23.298;2022-12-07T21:29:00;148.17;;;67.27;;
6342;SDS011;3204;42.698;23.298;2022-12-07T21:31:29;146.73;;;70.40;;
6342;SDS011;3204;42.698;23.298;2022-12-07T21:33:55;134.20;;;61.17;;
6342;SDS011;3204;42.698;23.298;2022-12-07T21:36:22;145.40;;;64.67;;
6342;SDS011;3204;42.698;23.298;2022-12-07T21:38:49;135.53;;;62.23;;
6342;SDS011;3204;42.698;23.298;2022-12-07T21:41:16;123.90;;;56.43;;
6342;SDS011;3204;42.698;23.298;2022-12-07T21:43:42;134.00;;;57.70;;
6342;SDS011;3204;42.698;23.298;2022-12-07T21:46:09;124.50;;;57.63;;
6342;SDS011;3204;42.698;23.298;2022-12-07T21:48:35;141.73;;;69.03;;
6342;SDS011;3204;42.698;23.298;2022-12-07T21:51:04;145.53;;;68.17;;
6342;SDS011;3204;42.698;23.298;2022-12-07T21:53:34;169.47;;;73.57;;
6342;SDS011;3204;42.698;23.298;2022-12-07T21:56:00;148.30;;;66.63;;
6342;SDS011;3204;42.698;23.298;2022-12-07T21:58:27;146.97;;;69.27;;
6342;SDS011;3204;42.698;23.298;2022-12-07T22:00:53;145.33;;;70.40;;
6342;SDS011;3204;42.698;23.298;2022-12-07T22:03:18;182.17;;;76.40;;
6342;SDS011;3204;42.698;23.298;2022-12-07T22:05:44;157.53;;;70.93;;
6342;SDS011;3204;42.698;23.298;2022-12-07T22:08:09;142.37;;;65.33;;
6342;SDS011;3204;42.698;23.298;2022-12-07T22:10:35;135.17;;;65.27;;
6342;SDS011;3204;42.698;23.298;2022-12-07T22:13:00;139.67;;;63.67;;
6342;SDS011;3204;42.698;23.298;2022-12-07T22:15:26;110.57;;;54.47;;
6342;SDS011;3204;42.698;23.298;2022-12-07T22:17:52;116.37;;;55.97;;
6342;SDS011;3204;42.698;23.298;2022-12-07T22:20:19;115.83;;;54.47;;
6342;SDS011;3204;42.698;23.298;2022-12-07T22:22:46;109.63;;;55.03;;
6342;SDS011;3204;42.698;23.298;2022-12-07T22:25:12;102.20;;;53.23;;
6342;SDS011;3204;42.698;23.298;2022-12-07T22:27:39;118.10;;;55.27;;
6342;SDS011;3204;42.698;23.298;2022-12-07T22:30:05;111.80;;;56.03;;
6342;SDS011;3204;42.698;23.298;2022-12-07T22:32:32;116.40;;;56.20;;
6342;SDS011;3204;42.698;23.298;2022-12-07T22:34:58;129.53;;;61.03;;
6342;SDS011;3204;42.698;23.298;2022-12-07T22:37:25;158.87;;;71.00;;
6342;SDS011;3204;42.698;23.298;2022-12-07T22:39:52;144.53;;;66.00;;
6342;SDS011;3204;42.698;23.298;2022-12-07T22:42:18;145.30;;;68.30;;
6342;SDS011;3204;42.698;23.298;2022-12-07T22:44:44;138.23;;;67.03;;
6342;SDS011;3204;42.698;23.298;2022-12-07T22:47:11;144.47;;;67.13;;
6342;SDS011;3204;42.698;23.298;2022-12-07T22:49:38;142.70;;;65.97;;
6342;SDS011;3204;42.698;23.298;2022-12-07T22:52:04;159.37;;;72.20;;
6342;SDS011;3204;42.698;23.298;2022-12-07T22:54:29;150.43;;;73.77;;
6342;SDS011;3204;42.698;23.298;2022-12-07T22:56:55;150.10;;;74.40;;
6342;SDS011;3204;42.698;23.298;2022-12-07T22:59:20;140.70;;;71.73;;
6342;SDS011;3204;42.698;23.298;2022-12-07T23:01:46;144.03;;;70.03;;
6342;SDS011;3204;42.698;23.298;2022-12-07T23:04:11;139.50;;;70.07;;
6342;SDS011;3204;42.698;23.298;2022-12-07T23:06:36;132.87;;;63.63;;
6342;SDS011;3204;42.698;23.298;2022-12-07T23:09:04;133.53;;;64.27;;
6342;SDS011;3204;42.698;23.298;2022-12-07T23:11:32;150.80;;;71.13;;
6342;SDS011;3204;42.698;23.298;2022-12-07T23:14:19;151.10;;;70.90;;
6342;SDS011;3204;42.698;23.298;2022-12-07T23:16:49;133.23;;;67.80;;
6342;SDS011;3204;42.698;23.298;2022-12-07T23:19:15;135.43;;;65.30;;
6342;SDS011;3204;42.698;23.298;2022-12-07T23:21:41;144.47;;;70.33;;
6342;SDS011;3204;42.698;23.298;2022-12-07T23:24:07;144.73;;;67.83;;
6342;SDS011;3204;42.698;23.298;2022-12-07T23:26:33;142.07;;;64.33;;
6342;SDS011;3204;42.698;23.298;2022-12-07T23:28:58;138.73;;;63.20;;
6342;SDS011;3204;42.698;23.298;2022-12-07T23:31:24;141.40;;;62.63;;
6342;SDS011;3204;42.698;23.298;2022-12-07T23:33:50;140.40;;;61.13;;
6342;SDS011;3204;42.698;23.298;2022-12-07T23:36:17;128.17;;;58.07;;
6342;SDS011;3204;42.698;23.298;2022-12-07T23:38:44;117.77;;;58.03;;
6342;SDS011;3204;42.698;23.298;2022-12-07T23:41:14;118.53;;;56.80;;
6342;SDS011;3204;42.698;23.298;2022-12-07T23:43:40;115.37;;;54.90;;
6342;SDS011;3204;42.698;23.298;2022-12-07T23:46:07;117.23;;;56.47;;
6342;SDS011;3204;42.698;23.298;2022-12-07T23:48:37;121.37;;;54.37;;
6342;SDS011;3204;42.698;23.298;2022-12-07T23:51:03;115.77;;;52.93;;
6342;SDS011;3204;42.698;23.298;2022-12-07T23:53:31;122.77;;;55.73;;
6342;SDS011;3204;42.698;23.298;2022-12-07T23:55:57;123.67;;;53.67;;
6342;SDS011;3204;42.698;23.298;2022-12-07T23:58:23;110.73;;;53.07;;
